createdAt,value
2017-08-04T00:00:12.831Z,6.58
2017-08-04T00:02:41.150Z,4.88
2017-08-04T00:05:09.457Z,7.78
2017-08-04T00:07:37.787Z,4.62
2017-08-04T00:10:06.095Z,5.44
2017-08-04T00:12:34.425Z,4.50
2017-08-04T00:15:02.795Z,10.18
2017-08-04T00:17:31.119Z,9.50
2017-08-04T00:19:59.431Z,7.86
2017-08-04T00:22:27.758Z,6.60
2017-08-04T00:24:56.065Z,5.42
2017-08-04T00:27:24.388Z,9.10
2017-08-04T00:29:52.695Z,6.70
2017-08-04T00:32:20.995Z,5.30
2017-08-04T00:34:49.329Z,9.70
2017-08-04T00:37:17.637Z,4.40
2017-08-04T00:39:45.984Z,5.34
2017-08-04T00:42:14.289Z,5.78
2017-08-04T00:44:42.641Z,7.80
2017-08-04T00:47:10.952Z,5.36
2017-08-04T00:49:39.308Z,4.86
2017-08-04T00:52:07.607Z,7.06
2017-08-04T00:54:35.925Z,4.66
2017-08-04T00:57:04.257Z,4.46
2017-08-04T00:59:32.586Z,7.74
2017-08-04T01:02:00.927Z,5.22
2017-08-04T01:04:29.263Z,5.66
2017-08-04T01:06:57.596Z,7.04
2017-08-04T01:09:25.905Z,5.98
2017-08-04T01:11:54.244Z,4.74
2017-08-04T01:14:21.799Z,5.74
2017-08-04T01:16:50.111Z,3.92
2017-08-04T01:19:18.436Z,6.08
2017-08-04T01:21:46.762Z,5.96
2017-08-04T01:24:15.088Z,5.72
2017-08-04T01:26:43.411Z,5.04
2017-08-04T01:29:11.738Z,5.66
2017-08-04T01:31:40.067Z,7.26
2017-08-04T01:34:08.395Z,7.00
2017-08-04T01:36:36.700Z,6.90
2017-08-04T01:39:05.013Z,6.30
2017-08-04T01:41:33.338Z,4.04
2017-08-04T01:44:01.655Z,4.82
2017-08-04T01:46:29.985Z,4.98
2017-08-04T01:48:58.310Z,4.52
2017-08-04T01:51:26.635Z,4.66
2017-08-04T01:53:54.954Z,5.82
2017-08-04T01:56:23.297Z,4.86
2017-08-04T01:58:51.627Z,5.42
2017-08-04T02:01:19.941Z,6.44
2017-08-04T02:03:47.506Z,3.90
2017-08-04T02:06:15.839Z,7.98
2017-08-04T02:08:44.163Z,6.28
2017-08-04T02:11:12.484Z,8.14
2017-08-04T02:13:40.810Z,4.70
2017-08-04T02:16:09.162Z,6.76
2017-08-04T02:18:37.483Z,7.04
2017-08-04T02:21:05.792Z,5.74
2017-08-04T02:23:34.140Z,5.32
2017-08-04T02:26:02.452Z,5.68
2017-08-04T02:28:30.764Z,12.14
2017-08-04T02:30:59.104Z,4.48
2017-08-04T02:33:27.407Z,7.58
2017-08-04T02:35:55.925Z,5.82
2017-08-04T02:38:24.243Z,6.12
2017-08-04T02:40:51.798Z,8.10
2017-08-04T02:43:20.103Z,6.00
2017-08-04T02:45:48.438Z,4.76
2017-08-04T02:48:16.739Z,4.50
2017-08-04T02:50:45.069Z,5.30
2017-08-04T02:53:13.379Z,5.32
2017-08-04T02:55:41.690Z,6.38
2017-08-04T02:58:10.020Z,9.94
2017-08-04T03:00:38.320Z,6.12
2017-08-04T03:03:06.653Z,6.50
2017-08-04T03:05:34.950Z,7.66
2017-08-04T03:08:03.281Z,9.44
2017-08-04T03:10:31.587Z,5.56
2017-08-04T03:12:59.150Z,6.24
2017-08-04T03:15:27.463Z,10.18
2017-08-04T03:17:55.796Z,5.88
2017-08-04T03:20:24.096Z,5.54
2017-08-04T03:22:52.397Z,5.56
2017-08-04T03:25:20.729Z,6.12
2017-08-04T03:27:49.038Z,6.50
2017-08-04T03:30:17.361Z,6.72
2017-08-04T03:32:45.665Z,9.88
2017-08-04T03:35:13.996Z,13.54
2017-08-04T03:37:42.311Z,7.22
2017-08-04T03:40:10.644Z,6.22
2017-08-04T03:42:38.953Z,5.06
2017-08-04T03:45:07.256Z,8.54
2017-08-04T03:47:35.593Z,6.42
2017-08-04T03:50:03.910Z,6.84
2017-08-04T03:52:32.244Z,4.52
2017-08-04T03:55:00.561Z,11.20
2017-08-04T03:57:28.889Z,5.10
2017-08-04T03:59:57.200Z,9.24
2017-08-04T04:02:25.531Z,4.16
2017-08-04T04:04:53.845Z,5.46
2017-08-04T04:07:22.156Z,6.00
2017-08-04T04:09:50.476Z,5.22
2017-08-04T04:12:18.780Z,4.96
2017-08-04T04:14:47.109Z,5.86
2017-08-04T04:17:15.406Z,6.62
2017-08-04T04:19:43.728Z,5.28
2017-08-04T04:22:12.028Z,5.30
2017-08-04T04:24:40.351Z,7.00
2017-08-04T04:27:08.660Z,5.56
2017-08-04T04:29:37.006Z,10.04
2017-08-04T04:32:05.315Z,7.58
2017-08-04T04:34:33.615Z,8.22
2017-08-04T04:37:01.944Z,6.72
2017-08-04T04:39:30.256Z,10.10
2017-08-04T04:41:58.580Z,8.94
2017-08-04T04:44:26.890Z,5.72
2017-08-04T04:46:55.221Z,6.40
2017-08-04T04:49:23.532Z,8.04
2017-08-04T04:51:51.088Z,4.78
2017-08-04T04:54:19.403Z,5.20
2017-08-04T04:56:47.727Z,5.02
2017-08-04T04:59:16.026Z,8.62
2017-08-04T05:01:44.348Z,7.08
2017-08-04T05:04:12.677Z,6.62
2017-08-04T05:06:41.004Z,7.04
2017-08-04T05:09:09.338Z,13.50
2017-08-04T05:11:36.878Z,6.86
2017-08-04T05:14:05.215Z,7.46
2017-08-04T05:16:33.528Z,6.72
2017-08-04T05:19:01.868Z,7.36
2017-08-04T05:21:30.180Z,4.88
2017-08-04T05:23:58.483Z,7.20
2017-08-04T05:26:26.821Z,6.92
2017-08-04T05:28:55.131Z,8.04
2017-08-04T05:31:23.475Z,8.18
2017-08-04T05:33:51.786Z,7.84
2017-08-04T05:36:20.001Z,7.58
2017-08-04T05:38:48.299Z,7.76
2017-08-04T05:41:15.884Z,9.20
2017-08-04T05:43:44.191Z,6.86
2017-08-04T05:46:11.728Z,7.42
2017-08-04T05:48:40.057Z,8.86
2017-08-04T05:51:08.363Z,6.38
2017-08-04T05:53:36.692Z,7.08
2017-08-04T05:56:04.996Z,5.02
2017-08-04T05:58:33.322Z,6.28
2017-08-04T06:01:01.649Z,8.56
2017-08-04T06:03:29.976Z,5.66
2017-08-04T06:05:58.292Z,5.00
2017-08-04T06:08:26.641Z,9.64
2017-08-04T06:10:54.944Z,8.78
2017-08-04T06:13:23.255Z,10.30
2017-08-04T06:15:51.584Z,7.08
2017-08-04T06:18:19.892Z,6.12
2017-08-04T06:20:48.217Z,8.60
2017-08-04T06:23:16.525Z,10.66
2017-08-04T06:25:44.856Z,8.50
2017-08-04T06:28:13.165Z,7.76
2017-08-04T06:30:41.484Z,6.10
2017-08-04T06:33:09.787Z,5.98
2017-08-04T06:35:38.116Z,10.54
2017-08-04T06:38:06.419Z,8.16
2017-08-04T06:40:34.768Z,6.32
2017-08-04T06:43:03.069Z,7.46
2017-08-04T06:45:31.374Z,9.52
2017-08-04T06:47:59.701Z,6.90
2017-08-04T06:50:50.817Z,5.28
2017-08-04T06:53:30.861Z,5.84
2017-08-04T06:56:08.794Z,9.64
2017-08-04T06:58:37.148Z,8.12
2017-08-04T07:01:05.447Z,12.38
2017-08-04T07:03:33.775Z,7.50
2017-08-04T07:06:02.091Z,6.90
2017-08-04T07:08:30.442Z,12.94
2017-08-04T07:10:58.748Z,10.24
2017-08-04T07:13:27.078Z,11.16
2017-08-04T07:15:55.382Z,8.44
2017-08-04T07:18:23.712Z,8.94
2017-08-04T07:20:52.031Z,11.76
2017-08-04T07:23:20.363Z,11.12
2017-08-04T07:25:48.672Z,10.40
2017-08-04T07:28:17.023Z,11.36
2017-08-04T07:30:45.339Z,13.48
2017-08-04T07:33:13.647Z,13.18
2017-08-04T07:35:41.973Z,9.48
2017-08-04T07:38:10.275Z,9.92
2017-08-04T07:40:38.595Z,10.86
2017-08-04T07:43:06.909Z,20.16
2017-08-04T07:45:35.252Z,23.02
2017-08-04T07:48:03.563Z,27.54
2017-08-04T07:50:31.913Z,16.30
2017-08-04T07:53:00.243Z,38.36
2017-08-04T07:55:28.563Z,19.72
2017-08-04T07:57:56.895Z,9.82
2017-08-04T08:00:25.200Z,9.88
2017-08-04T08:02:53.528Z,11.44
2017-08-04T08:05:21.837Z,29.46
2017-08-04T08:07:50.164Z,10.48
2017-08-04T08:10:18.481Z,15.40
2017-08-04T08:12:46.803Z,13.08
2017-08-04T08:15:15.116Z,11.86
2017-08-04T08:17:43.447Z,11.08
2017-08-04T08:20:11.757Z,9.90
2017-08-04T08:22:40.075Z,9.90
2017-08-04T08:25:08.399Z,8.74
2017-08-04T08:27:36.699Z,7.66
2017-08-04T08:30:05.035Z,16.54
2017-08-04T08:32:32.571Z,10.90
2017-08-04T08:35:00.903Z,20.10
2017-08-04T08:37:29.217Z,20.86
2017-08-04T08:39:57.550Z,8.36
2017-08-04T08:42:25.847Z,8.92
2017-08-04T08:44:54.151Z,8.54
2017-08-04T08:47:22.475Z,8.32
2017-08-04T08:49:50.778Z,6.02
2017-08-04T08:52:19.109Z,7.10
2017-08-04T08:54:47.420Z,6.98
2017-08-04T08:57:15.751Z,10.84
2017-08-04T08:59:44.054Z,7.24
2017-08-04T09:02:12.375Z,5.94
2017-08-04T09:04:40.687Z,7.14
2017-08-04T09:07:09.028Z,12.38
2017-08-04T09:09:37.327Z,8.28
2017-08-04T09:12:05.636Z,11.12
2017-08-04T09:14:33.964Z,6.72
2017-08-04T09:17:02.274Z,8.64
2017-08-04T09:19:30.597Z,6.10
2017-08-04T09:21:58.902Z,6.28
2017-08-04T09:24:27.229Z,5.56
2017-08-04T09:26:55.529Z,5.44
2017-08-04T09:29:23.853Z,9.72
2017-08-04T09:31:52.164Z,5.26
2017-08-04T09:34:20.498Z,6.34
2017-08-04T09:36:48.808Z,7.08
2017-08-04T09:39:17.111Z,5.22
2017-08-04T09:41:45.435Z,7.20
2017-08-04T09:44:13.739Z,6.04
2017-08-04T09:46:42.072Z,3.94
2017-08-04T09:49:10.398Z,5.28
2017-08-04T09:51:38.735Z,5.92
2017-08-04T09:54:07.045Z,7.74
2017-08-04T09:56:35.367Z,5.32
2017-08-04T09:59:03.664Z,3.82
2017-08-04T10:01:31.996Z,5.16
2017-08-04T10:04:00.306Z,5.34
2017-08-04T10:06:28.611Z,4.70
2017-08-04T10:08:56.937Z,3.58
2017-08-04T10:11:25.244Z,5.22
2017-08-04T10:13:53.567Z,6.54
2017-08-04T10:16:21.881Z,4.92
2017-08-04T10:18:50.217Z,4.54
2017-08-04T10:21:18.523Z,3.26
2017-08-04T10:23:46.850Z,3.22
2017-08-04T10:26:15.152Z,4.08
2017-08-04T10:28:43.516Z,4.60
2017-08-04T10:31:11.823Z,9.32
2017-08-04T10:33:40.127Z,6.32
2017-08-04T10:36:08.459Z,4.56
2017-08-04T10:38:36.781Z,8.08
2017-08-04T10:41:05.113Z,3.70
2017-08-04T10:43:33.443Z,6.40
2017-08-04T10:46:01.772Z,4.18
2017-08-04T10:48:30.092Z,8.04
2017-08-04T10:50:58.415Z,7.40
2017-08-04T10:53:25.955Z,6.14
2017-08-04T10:55:54.302Z,4.84
2017-08-04T10:58:22.606Z,5.24
2017-08-04T11:00:50.911Z,4.12
2017-08-04T11:03:19.261Z,3.80
2017-08-04T11:05:47.567Z,4.62
2017-08-04T11:08:15.913Z,5.02
2017-08-04T11:10:44.218Z,3.66
2017-08-04T11:13:12.544Z,3.18
2017-08-04T11:15:40.849Z,3.52
2017-08-04T11:18:09.180Z,2.54
2017-08-04T11:20:37.492Z,5.00
2017-08-04T11:23:05.818Z,3.42
2017-08-04T11:25:34.118Z,3.10
2017-08-04T11:28:02.429Z,7.54
2017-08-04T11:30:30.751Z,10.54
2017-08-04T11:32:59.054Z,6.42
2017-08-04T11:35:27.371Z,7.94
2017-08-04T11:37:55.683Z,3.54
2017-08-04T11:40:24.003Z,4.34
2017-08-04T11:42:52.307Z,3.68
2017-08-04T11:45:20.655Z,3.40
2017-08-04T11:47:48.956Z,5.06
2017-08-04T11:50:17.257Z,3.96
2017-08-04T11:52:45.611Z,4.30
2017-08-04T11:55:13.910Z,2.64
2017-08-04T11:57:42.273Z,3.44
2017-08-04T12:00:10.577Z,4.32
2017-08-04T12:02:38.908Z,3.76
2017-08-04T12:05:07.225Z,3.76
2017-08-04T12:07:35.556Z,8.26
2017-08-04T12:10:03.864Z,7.68
2017-08-04T12:12:32.200Z,4.70
2017-08-04T12:15:00.508Z,7.54
2017-08-04T12:17:28.816Z,5.68
2017-08-04T12:19:57.159Z,4.48
2017-08-04T12:22:25.479Z,3.74
2017-08-04T12:24:53.806Z,3.04
2017-08-04T12:27:22.115Z,4.40
2017-08-04T12:29:50.464Z,3.30
2017-08-04T12:32:18.772Z,3.64
2017-08-04T12:34:47.113Z,4.20
2017-08-04T12:37:15.430Z,3.58
2017-08-04T12:39:43.774Z,3.84
2017-08-04T12:42:12.091Z,3.64
2017-08-04T12:44:40.391Z,3.26
2017-08-04T12:47:08.716Z,3.98
2017-08-04T12:49:37.027Z,3.70
2017-08-04T12:52:05.457Z,5.46
2017-08-04T12:54:33.761Z,2.98
2017-08-04T12:57:02.107Z,3.50
2017-08-04T12:59:30.414Z,3.04
2017-08-04T13:01:58.770Z,3.94
2017-08-04T13:04:27.080Z,5.96
2017-08-04T13:06:55.426Z,4.16
2017-08-04T13:09:22.967Z,4.08
2017-08-04T13:11:51.276Z,5.08
2017-08-04T13:14:19.602Z,3.10
2017-08-04T13:16:47.912Z,4.12
2017-08-04T13:19:16.236Z,5.06
2017-08-04T13:21:44.537Z,3.34
2017-08-04T13:24:12.868Z,3.82
2017-08-04T13:26:41.175Z,5.94
2017-08-04T13:29:09.524Z,4.44
2017-08-04T13:31:37.839Z,3.68
2017-08-04T13:34:05.390Z,2.62
2017-08-04T13:36:33.717Z,4.50
2017-08-04T13:39:02.023Z,4.54
2017-08-04T13:41:30.347Z,4.62
2017-08-04T13:43:58.657Z,3.26
2017-08-04T13:46:26.981Z,2.82
2017-08-04T13:48:55.310Z,2.70
2017-08-04T13:51:22.899Z,5.88
2017-08-04T13:53:51.199Z,7.50
2017-08-04T13:56:19.501Z,3.52
2017-08-04T13:58:47.864Z,8.34
2017-08-04T14:01:16.185Z,5.38
2017-08-04T14:03:44.514Z,2.80
2017-08-04T14:06:12.824Z,4.22
2017-08-04T14:08:41.157Z,4.74
2017-08-04T14:11:09.466Z,4.20
2017-08-04T14:13:37.793Z,3.12
2017-08-04T14:16:05.335Z,2.98
2017-08-04T14:18:33.658Z,6.18
2017-08-04T14:21:01.967Z,3.92
2017-08-04T14:23:30.268Z,4.30
2017-08-04T14:25:58.600Z,2.42
2017-08-04T14:28:26.899Z,4.50
2017-08-04T14:30:55.226Z,5.76
2017-08-04T14:33:23.538Z,3.36
2017-08-04T14:35:51.863Z,5.02
2017-08-04T14:38:20.172Z,3.82
2017-08-04T14:40:48.499Z,3.10
2017-08-04T14:43:16.813Z,5.42
2017-08-04T14:45:45.156Z,2.74
2017-08-04T14:48:13.470Z,4.84
2017-08-04T14:50:41.767Z,6.72
2017-08-04T14:53:10.104Z,7.72
2017-08-04T14:55:38.408Z,3.64
2017-08-04T14:58:06.742Z,5.12
2017-08-04T15:00:35.066Z,4.60
2017-08-04T15:03:03.392Z,3.58
2017-08-04T15:05:31.730Z,4.26
2017-08-04T15:08:00.067Z,9.12
2017-08-04T15:10:27.634Z,7.84
2017-08-04T15:12:55.936Z,7.02
2017-08-04T15:15:24.262Z,2.96
2017-08-04T15:17:52.569Z,3.36
2017-08-04T15:20:20.903Z,3.06
2017-08-04T15:22:49.211Z,2.94
2017-08-04T15:25:17.531Z,4.96
2017-08-04T15:27:45.836Z,2.32
2017-08-04T15:30:14.179Z,3.08
2017-08-04T15:32:42.483Z,2.88
2017-08-04T15:35:10.840Z,5.76
2017-08-04T15:37:39.230Z,2.90
2017-08-04T15:40:07.535Z,4.16
2017-08-04T15:42:35.864Z,5.58
2017-08-04T15:45:04.171Z,2.96
2017-08-04T15:47:32.499Z,3.06
2017-08-04T15:50:00.803Z,4.88
2017-08-04T15:52:29.139Z,6.04
2017-08-04T15:54:57.448Z,6.26
2017-08-04T15:57:25.765Z,4.70
2017-08-04T15:59:54.101Z,5.54
2017-08-04T16:02:22.420Z,4.42
2017-08-04T16:04:50.748Z,2.56
2017-08-04T16:07:19.056Z,3.78
2017-08-04T16:09:47.387Z,5.58
2017-08-04T16:12:15.708Z,3.90
2017-08-04T16:14:44.032Z,5.00
2017-08-04T16:17:12.332Z,3.12
2017-08-04T16:19:40.668Z,3.56
2017-08-04T16:22:08.971Z,5.48
2017-08-04T16:24:37.280Z,7.56
2017-08-04T16:27:05.655Z,4.24
2017-08-04T16:29:33.999Z,4.70
2017-08-04T16:32:02.329Z,5.50
2017-08-04T16:34:30.632Z,3.00
2017-08-04T16:36:58.955Z,6.88
2017-08-04T16:39:27.259Z,5.70
2017-08-04T16:41:55.592Z,4.46
2017-08-04T16:44:23.903Z,6.16
2017-08-04T16:46:52.212Z,5.50
2017-08-04T16:49:20.565Z,7.14
2017-08-04T16:51:48.884Z,2.80
2017-08-04T16:54:17.235Z,5.90
2017-08-04T16:56:45.543Z,5.20
2017-08-04T16:59:13.871Z,3.80
2017-08-04T17:01:42.189Z,5.60
2017-08-04T17:04:10.539Z,5.76
2017-08-04T17:06:38.843Z,7.30
2017-08-04T17:09:07.156Z,5.38
2017-08-04T17:11:35.479Z,3.68
2017-08-04T17:14:03.788Z,7.40
2017-08-04T17:16:32.114Z,8.58
2017-08-04T17:19:00.459Z,4.52
2017-08-04T17:21:28.780Z,3.70
2017-08-04T17:23:56.320Z,3.50
2017-08-04T17:26:24.653Z,5.04
2017-08-04T17:28:52.966Z,5.36
2017-08-04T17:31:21.270Z,5.66
2017-08-04T17:33:49.597Z,3.54
2017-08-04T17:36:17.142Z,6.16
2017-08-04T17:38:45.464Z,8.36
2017-08-04T17:41:13.768Z,7.36
2017-08-04T17:43:42.096Z,4.66
2017-08-04T17:46:10.399Z,5.00
2017-08-04T17:48:38.727Z,5.74
2017-08-04T17:51:06.271Z,3.62
2017-08-04T17:53:34.597Z,4.18
2017-08-04T17:56:02.942Z,5.94
2017-08-04T17:58:35.109Z,4.54
2017-08-04T18:01:03.433Z,5.76
2017-08-04T18:03:31.745Z,5.22
2017-08-04T18:05:59.313Z,3.32
2017-08-04T18:08:27.628Z,4.94
2017-08-04T18:10:55.959Z,6.82
2017-08-04T18:13:24.281Z,6.24
2017-08-04T18:15:52.588Z,3.86
2017-08-04T18:18:20.916Z,5.02
2017-08-04T18:20:49.226Z,4.10
2017-08-04T18:23:17.559Z,4.24
2017-08-04T18:25:45.854Z,4.08
2017-08-04T18:28:14.182Z,5.12
2017-08-04T18:30:42.493Z,4.94
2017-08-04T18:33:10.825Z,5.84
2017-08-04T18:35:39.127Z,4.18
2017-08-04T18:38:07.447Z,4.76
2017-08-04T18:40:35.771Z,4.22
2017-08-04T18:43:04.075Z,5.66
2017-08-04T18:45:32.399Z,4.96
2017-08-04T18:48:00.709Z,7.88
2017-08-04T18:50:29.035Z,8.08
2017-08-04T18:52:57.352Z,5.30
2017-08-04T18:55:25.671Z,5.32
2017-08-04T18:57:53.983Z,5.42
2017-08-04T19:00:22.315Z,5.10
2017-08-04T19:02:50.617Z,4.80
2017-08-04T19:05:18.925Z,5.10
2017-08-04T19:07:47.263Z,3.94
2017-08-04T19:10:15.572Z,6.30
2017-08-04T19:12:43.899Z,7.62
2017-08-04T19:15:12.205Z,4.20
2017-08-04T19:17:40.530Z,5.52
2017-08-04T19:20:08.839Z,5.12
2017-08-04T19:22:37.168Z,4.94
2017-08-04T19:25:05.494Z,5.18
2017-08-04T19:27:33.847Z,6.08
2017-08-04T19:30:02.171Z,5.52
2017-08-04T19:32:30.479Z,4.20
2017-08-04T19:34:58.849Z,6.16
2017-08-04T19:37:27.152Z,5.78
2017-08-04T19:39:55.501Z,5.64
2017-08-04T19:42:23.808Z,5.20
2017-08-04T19:44:52.153Z,4.72
2017-08-04T19:47:20.472Z,9.14
2017-08-04T19:49:48.809Z,6.06
2017-08-04T19:52:17.129Z,7.76
2017-08-04T19:54:45.431Z,7.24
2017-08-04T19:57:13.760Z,6.60
2017-08-04T19:59:42.056Z,7.84
2017-08-04T20:02:10.395Z,6.88
2017-08-04T20:04:38.701Z,5.40
2017-08-04T20:07:07.040Z,6.76
2017-08-04T20:09:35.351Z,4.16
2017-08-04T20:12:03.691Z,8.06
2017-08-04T20:14:32.002Z,6.80
2017-08-04T20:17:00.344Z,6.50
2017-08-04T20:19:28.648Z,6.02
2017-08-04T20:21:56.977Z,6.08
2017-08-04T20:24:25.308Z,6.56
2017-08-04T20:26:53.623Z,7.68
2017-08-04T20:29:21.948Z,5.52
2017-08-04T20:31:50.257Z,5.30
2017-08-04T20:34:18.582Z,7.70
2017-08-04T20:36:46.891Z,6.28
2017-08-04T20:39:15.237Z,6.46
2017-08-04T20:41:43.550Z,6.62
2017-08-04T20:44:11.850Z,6.32
2017-08-04T20:46:40.176Z,6.98
2017-08-04T20:49:08.483Z,9.28
2017-08-04T20:51:36.815Z,7.56
2017-08-04T20:54:05.119Z,8.68
2017-08-04T20:56:33.452Z,8.64
2017-08-04T20:59:01.761Z,10.46
2017-08-04T21:01:30.092Z,9.52
2017-08-04T21:03:57.632Z,6.50
2017-08-04T21:06:25.989Z,8.12
2017-08-04T21:08:54.303Z,18.02
2017-08-04T21:11:22.630Z,45.84
2017-08-04T21:13:50.970Z,37.14
2017-08-04T21:16:19.289Z,56.54
2017-08-04T21:18:47.624Z,56.14
2017-08-04T21:21:15.937Z,35.90
2017-08-04T21:23:44.272Z,59.28
2017-08-04T21:26:12.586Z,36.54
2017-08-04T21:28:40.919Z,42.36
2017-08-04T21:31:09.240Z,7.88
2017-08-04T21:33:37.567Z,9.70
2017-08-04T21:36:05.948Z,25.70
2017-08-04T21:38:34.279Z,10.34
2017-08-04T21:41:02.591Z,11.20
2017-08-04T21:43:30.907Z,12.02
2017-08-04T21:45:58.463Z,6.64
2017-08-04T21:48:26.781Z,10.24
2017-08-04T21:50:55.123Z,5.74
2017-08-04T21:53:23.435Z,10.24
2017-08-04T21:55:51.003Z,6.80
2017-08-04T21:58:19.308Z,8.94
2017-08-04T22:00:47.657Z,4.86
2017-08-04T22:03:15.955Z,4.86
2017-08-04T22:05:43.517Z,7.18
2017-08-04T22:08:11.823Z,6.36
2017-08-04T22:10:40.133Z,6.32
2017-08-04T22:13:08.456Z,7.04
2017-08-04T22:15:35.988Z,6.28
2017-08-04T22:18:04.324Z,5.84
2017-08-04T22:20:32.633Z,7.12
2017-08-04T22:23:00.963Z,9.10
2017-08-04T22:25:29.281Z,8.96
2017-08-04T22:27:57.604Z,8.66
2017-08-04T22:30:25.916Z,8.10
2017-08-04T22:32:54.242Z,7.74
2017-08-04T22:35:22.571Z,10.46
2017-08-04T22:37:50.886Z,9.52
2017-08-04T22:40:19.210Z,6.14
2017-08-04T22:42:47.521Z,6.24
2017-08-04T22:45:15.851Z,7.12
2017-08-04T22:47:44.152Z,5.64
2017-08-04T22:50:12.482Z,9.36
2017-08-04T22:52:40.796Z,10.54
2017-08-04T22:55:09.136Z,10.84
2017-08-04T22:57:37.444Z,17.76
2017-08-04T23:00:05.806Z,12.42
2017-08-04T23:02:34.120Z,8.26
2017-08-04T23:05:02.423Z,6.94
2017-08-04T23:07:30.759Z,8.92
2017-08-04T23:09:59.074Z,7.48
2017-08-04T23:12:27.400Z,6.06
2017-08-04T23:14:55.708Z,6.52
2017-08-04T23:17:24.040Z,8.36
2017-08-04T23:19:52.342Z,7.12
2017-08-04T23:22:30.719Z,4.78
2017-08-04T23:24:59.025Z,6.04
2017-08-04T23:27:27.331Z,5.16
2017-08-04T23:29:55.658Z,10.60
2017-08-04T23:32:23.207Z,11.28
2017-08-04T23:34:51.523Z,6.46
2017-08-04T23:37:19.824Z,4.40
2017-08-04T23:39:48.151Z,5.46
2017-08-04T23:42:16.466Z,6.96
2017-08-04T23:44:44.799Z,4.68
2017-08-04T23:47:13.128Z,9.58
2017-08-04T23:49:41.468Z,10.30
2017-08-04T23:52:09.777Z,5.48
2017-08-04T23:54:38.084Z,11.16
2017-08-04T23:57:06.406Z,5.92
2017-08-04T23:59:34.706Z,5.76
